sensor_id;sensor_type;location;lat;lon;timestamp;pressure;altitude;pressure_sealevel;temperature;humidity
41596;BME280;27283;52.504;13.358;2023-03-23T00:01:28;100220.84;;;12.10;67.57
41596;BME280;27283;52.504;13.358;2023-03-23T00:04:06;100206.44;;;12.03;67.84
41596;BME280;27283;52.504;13.358;2023-03-23T00:06:41;100207.91;;;11.91;68.54
41596;BME280;27283;52.504;13.358;2023-03-23T00:09:14;100207.00;;;11.98;68.20
41596;BME280;27283;52.504;13.358;2023-03-23T00:11:52;100191.56;;;11.92;68.55
41596;BME280;27283;52.504;13.358;2023-03-23T00:14:34;100187.06;;;11.93;68.63
41596;BME280;27283;52.504;13.358;2023-03-23T00:17:12;100192.75;;;11.89;68.50
41596;BME280;27283;52.504;13.358;2023-03-23T00:19:45;100197.66;;;11.94;68.47
41596;BME280;27283;52.504;13.358;2023-03-23T00:22:32;100194.25;;;11.92;68.46
41596;BME280;27283;52.504;13.358;2023-03-23T00:25:07;100192.31;;;11.86;68.94
41596;BME280;27283;52.504;13.358;2023-03-23T00:27:39;100193.72;;;11.82;69.46
41596;BME280;27283;52.504;13.358;2023-03-23T00:30:13;100187.13;;;11.69;69.42
41596;BME280;27283;52.504;13.358;2023-03-23T00:32:49;100169.97;;;11.70;69.39
41596;BME280;27283;52.504;13.358;2023-03-23T00:35:21;100177.94;;;11.64;69.80
41596;BME280;27283;52.504;13.358;2023-03-23T00:37:53;100177.84;;;11.57;70.35
41596;BME280;27283;52.504;13.358;2023-03-23T00:40:28;100179.78;;;11.33;71.85
41596;BME280;27283;52.504;13.358;2023-03-23T00:43:00;100169.69;;;11.35;71.29
41596;BME280;27283;52.504;13.358;2023-03-23T00:45:33;100164.50;;;11.34;71.71
41596;BME280;27283;52.504;13.358;2023-03-23T00:48:08;100159.19;;;11.26;71.70
41596;BME280;27283;52.504;13.358;2023-03-23T00:50:41;100158.63;;;11.30;71.25
41596;BME280;27283;52.504;13.358;2023-03-23T00:53:14;100154.81;;;11.40;70.61
41596;BME280;27283;52.504;13.358;2023-03-23T00:55:47;100158.75;;;11.37;70.54
41596;BME280;27283;52.504;13.358;2023-03-23T00:58:20;100152.69;;;11.35;70.89
41596;BME280;27283;52.504;13.358;2023-03-23T01:00:52;100148.16;;;11.35;70.69
41596;BME280;27283;52.504;13.358;2023-03-23T01:03:28;100143.50;;;11.44;70.16
41596;BME280;27283;52.504;13.358;2023-03-23T01:06:05;100153.44;;;11.44;70.55
41596;BME280;27283;52.504;13.358;2023-03-23T01:08:41;100138.41;;;11.34;70.62
41596;BME280;27283;52.504;13.358;2023-03-23T01:11:18;100139.41;;;11.33;70.79
41596;BME280;27283;52.504;13.358;2023-03-23T01:13:50;100132.38;;;11.32;70.53
41596;BME280;27283;52.504;13.358;2023-03-23T01:16:22;100134.78;;;11.27;70.65
41596;BME280;27283;52.504;13.358;2023-03-23T01:18:57;100134.34;;;11.24;71.01
41596;BME280;27283;52.504;13.358;2023-03-23T01:21:30;100132.47;;;11.24;70.63
41596;BME280;27283;52.504;13.358;2023-03-23T01:24:02;100133.03;;;11.20;70.98
41596;BME280;27283;52.504;13.358;2023-03-23T01:26:35;100137.41;;;11.21;71.37
41596;BME280;27283;52.504;13.358;2023-03-23T01:29:07;100128.56;;;11.12;71.40
41596;BME280;27283;52.504;13.358;2023-03-23T01:31:40;100118.19;;;11.09;71.20
41596;BME280;27283;52.504;13.358;2023-03-23T01:34:15;100111.13;;;11.08;71.54
41596;BME280;27283;52.504;13.358;2023-03-23T01:36:47;100111.59;;;10.96;72.24
41596;BME280;27283;52.504;13.358;2023-03-23T01:39:19;100114.19;;;11.05;71.64
41596;BME280;27283;52.504;13.358;2023-03-23T01:41:52;100115.22;;;11.04;71.95
41596;BME280;27283;52.504;13.358;2023-03-23T01:47:39;100119.00;;;10.94;72.46
41596;BME280;27283;52.504;13.358;2023-03-23T01:50:13;100110.66;;;10.89;72.50
41596;BME280;27283;52.504;13.358;2023-03-23T01:52:46;100114.25;;;10.81;72.88
41596;BME280;27283;52.504;13.358;2023-03-23T01:55:20;100108.50;;;10.85;72.85
41596;BME280;27283;52.504;13.358;2023-03-23T01:57:54;100096.00;;;10.92;72.65
41596;BME280;27283;52.504;13.358;2023-03-23T02:00:27;100095.44;;;10.96;72.36
41596;BME280;27283;52.504;13.358;2023-03-23T02:03:00;100098.41;;;11.02;72.08
41596;BME280;27283;52.504;13.358;2023-03-23T02:05:38;100105.66;;;11.01;72.35
41596;BME280;27283;52.504;13.358;2023-03-23T02:08:11;100095.25;;;10.98;72.24
41596;BME280;27283;52.504;13.358;2023-03-23T02:10:47;100090.53;;;11.00;72.25
41596;BME280;27283;52.504;13.358;2023-03-23T02:13:20;100094.59;;;10.96;72.14
41596;BME280;27283;52.504;13.358;2023-03-23T02:16:01;100097.41;;;11.03;72.21
41596;BME280;27283;52.504;13.358;2023-03-23T02:18:45;100093.69;;;10.89;72.63
41596;BME280;27283;52.504;13.358;2023-03-23T02:27:24;100084.59;;;11.05;71.74
41596;BME280;27283;52.504;13.358;2023-03-23T02:30:15;100088.41;;;11.10;71.60
41596;BME280;27283;52.504;13.358;2023-03-23T02:36:04;100075.00;;;11.32;70.00
41596;BME280;27283;52.504;13.358;2023-03-23T02:38:43;100087.53;;;11.40;70.16
41596;BME280;27283;52.504;13.358;2023-03-23T02:41:24;100090.03;;;11.41;70.89
41596;BME280;27283;52.504;13.358;2023-03-23T02:43:57;100096.47;;;11.40;69.93
41596;BME280;27283;52.504;13.358;2023-03-23T02:46:31;100095.03;;;11.44;70.83
41596;BME280;27283;52.504;13.358;2023-03-23T02:49:07;100092.00;;;11.47;71.97
41596;BME280;27283;52.504;13.358;2023-03-23T02:51:44;100088.28;;;11.48;72.91
41596;BME280;27283;52.504;13.358;2023-03-23T02:54:18;100087.88;;;11.51;72.74
41596;BME280;27283;52.504;13.358;2023-03-23T02:56:54;100073.59;;;11.51;72.73
41596;BME280;27283;52.504;13.358;2023-03-23T02:59:27;100075.84;;;11.47;73.09
41596;BME280;27283;52.504;13.358;2023-03-23T03:02:07;100072.88;;;11.42;74.60
41596;BME280;27283;52.504;13.358;2023-03-23T03:04:42;100069.34;;;11.57;72.37
41596;BME280;27283;52.504;13.358;2023-03-23T03:07:50;100066.44;;;11.58;73.12
41596;BME280;27283;52.504;13.358;2023-03-23T03:10:32;100073.66;;;11.58;73.96
41596;BME280;27283;52.504;13.358;2023-03-23T03:13:11;100069.25;;;11.50;73.83
41596;BME280;27283;52.504;13.358;2023-03-23T03:15:50;100068.84;;;11.53;73.27
41596;BME280;27283;52.504;13.358;2023-03-23T03:18:27;100073.66;;;11.58;73.27
41596;BME280;27283;52.504;13.358;2023-03-23T03:21:04;100070.34;;;11.56;72.94
41596;BME280;27283;52.504;13.358;2023-03-23T03:23:43;100077.66;;;11.62;72.53
41596;BME280;27283;52.504;13.358;2023-03-23T03:26:18;100066.25;;;11.60;71.94
41596;BME280;27283;52.504;13.358;2023-03-23T03:28:55;100063.44;;;11.68;71.54
41596;BME280;27283;52.504;13.358;2023-03-23T03:31:32;100070.88;;;11.66;72.51
41596;BME280;27283;52.504;13.358;2023-03-23T03:34:06;100068.63;;;11.69;71.77
41596;BME280;27283;52.504;13.358;2023-03-23T03:36:40;100069.97;;;11.59;72.36
41596;BME280;27283;52.504;13.358;2023-03-23T03:39:15;100076.38;;;11.58;73.05
41596;BME280;27283;52.504;13.358;2023-03-23T03:41:49;100077.91;;;11.67;72.89
41596;BME280;27283;52.504;13.358;2023-03-23T03:44:24;100072.91;;;11.64;74.60
41596;BME280;27283;52.504;13.358;2023-03-23T03:46:56;100076.19;;;11.59;76.37
41596;BME280;27283;52.504;13.358;2023-03-23T03:49:29;100067.84;;;11.54;75.79
41596;BME280;27283;52.504;13.358;2023-03-23T03:52:01;100062.00;;;11.50;76.99
41596;BME280;27283;52.504;13.358;2023-03-23T03:54:36;100060.91;;;11.45;76.67
41596;BME280;27283;52.504;13.358;2023-03-23T03:57:09;100065.44;;;11.44;77.28
41596;BME280;27283;52.504;13.358;2023-03-23T03:59:41;100063.78;;;11.43;76.89
41596;BME280;27283;52.504;13.358;2023-03-23T04:02:14;100067.78;;;11.32;78.07
41596;BME280;27283;52.504;13.358;2023-03-23T04:04:51;100072.50;;;11.45;76.48
41596;BME280;27283;52.504;13.358;2023-03-23T04:07:24;100065.63;;;11.43;77.55
41596;BME280;27283;52.504;13.358;2023-03-23T04:10:01;100069.34;;;11.42;78.00
41596;BME280;27283;52.504;13.358;2023-03-23T04:12:34;100056.91;;;11.41;76.09
41596;BME280;27283;52.504;13.358;2023-03-23T04:15:08;100052.28;;;11.34;77.64
41596;BME280;27283;52.504;13.358;2023-03-23T04:17:40;100040.22;;;11.30;76.78
41596;BME280;27283;52.504;13.358;2023-03-23T04:20:13;100054.59;;;11.38;76.33
41596;BME280;27283;52.504;13.358;2023-03-23T04:22:59;100056.28;;;11.39;76.77
41596;BME280;27283;52.504;13.358;2023-03-23T04:25:35;100059.34;;;11.35;76.92
41596;BME280;27283;52.504;13.358;2023-03-23T04:28:09;100050.03;;;11.38;76.82
41596;BME280;27283;52.504;13.358;2023-03-23T04:30:42;100035.81;;;11.44;75.52
41596;BME280;27283;52.504;13.358;2023-03-23T04:33:15;100046.97;;;11.41;76.27
41596;BME280;27283;52.504;13.358;2023-03-23T04:35:52;100053.22;;;11.42;76.90
41596;BME280;27283;52.504;13.358;2023-03-23T04:38:25;100045.31;;;11.40;77.76
41596;BME280;27283;52.504;13.358;2023-03-23T04:41:01;100045.22;;;11.33;79.85
41596;BME280;27283;52.504;13.358;2023-03-23T04:43:33;100056.38;;;11.30;80.69
41596;BME280;27283;52.504;13.358;2023-03-23T04:46:10;100075.38;;;11.29;81.31
41596;BME280;27283;52.504;13.358;2023-03-23T04:48:47;100077.72;;;11.17;84.60
41596;BME280;27283;52.504;13.358;2023-03-23T04:51:19;100073.75;;;11.13;84.27
41596;BME280;27283;52.504;13.358;2023-03-23T04:53:51;100071.81;;;11.07;85.16
41596;BME280;27283;52.504;13.358;2023-03-23T04:56:27;100081.06;;;11.04;85.10
41596;BME280;27283;52.504;13.358;2023-03-23T04:58:59;100080.06;;;10.90;87.05
41596;BME280;27283;52.504;13.358;2023-03-23T05:01:32;100091.25;;;10.94;87.05
41596;BME280;27283;52.504;13.358;2023-03-23T05:04:08;100090.25;;;10.95;87.13
41596;BME280;27283;52.504;13.358;2023-03-23T05:06:42;100088.56;;;10.94;88.59
41596;BME280;27283;52.504;13.358;2023-03-23T05:09:16;100079.09;;;10.83;88.49
41596;BME280;27283;52.504;13.358;2023-03-23T05:11:51;100078.38;;;10.89;88.09
41596;BME280;27283;52.504;13.358;2023-03-23T05:14:23;100083.75;;;10.89;87.73
41596;BME280;27283;52.504;13.358;2023-03-23T05:16:56;100085.44;;;10.90;88.58
41596;BME280;27283;52.504;13.358;2023-03-23T05:19:28;100084.38;;;10.91;89.28
41596;BME280;27283;52.504;13.358;2023-03-23T05:22:00;100074.50;;;10.92;89.91
41596;BME280;27283;52.504;13.358;2023-03-23T05:24:33;100072.53;;;10.86;90.07
41596;BME280;27283;52.504;13.358;2023-03-23T05:27:08;100084.50;;;10.83;90.57
41596;BME280;27283;52.504;13.358;2023-03-23T05:29:40;100079.66;;;10.78;92.12
41596;BME280;27283;52.504;13.358;2023-03-23T05:32:12;100090.13;;;10.73;92.42
41596;BME280;27283;52.504;13.358;2023-03-23T05:34:44;100081.13;;;10.66;93.36
41596;BME280;27283;52.504;13.358;2023-03-23T05:37:17;100088.66;;;10.71;92.26
41596;BME280;27283;52.504;13.358;2023-03-23T05:39:49;100091.34;;;10.71;92.40
41596;BME280;27283;52.504;13.358;2023-03-23T05:42:26;100101.41;;;10.69;94.44
41596;BME280;27283;52.504;13.358;2023-03-23T05:45:33;100099.59;;;10.69;93.91
41596;BME280;27283;52.504;13.358;2023-03-23T05:48:06;100093.16;;;10.55;94.43
41596;BME280;27283;52.504;13.358;2023-03-23T05:50:37;100097.09;;;10.44;96.01
41596;BME280;27283;52.504;13.358;2023-03-23T05:53:10;100092.50;;;10.53;96.54
41596;BME280;27283;52.504;13.358;2023-03-23T05:55:43;100094.63;;;10.58;97.63
41596;BME280;27283;52.504;13.358;2023-03-23T05:58:24;100099.38;;;10.56;98.27
41596;BME280;27283;52.504;13.358;2023-03-23T06:00:56;100102.91;;;10.33;98.83
41596;BME280;27283;52.504;13.358;2023-03-23T06:03:28;100112.22;;;10.45;99.89
41596;BME280;27283;52.504;13.358;2023-03-23T06:06:00;100104.16;;;10.22;100.00
41596;BME280;27283;52.504;13.358;2023-03-23T06:08:32;100109.81;;;10.27;100.00
41596;BME280;27283;52.504;13.358;2023-03-23T06:11:05;100105.44;;;10.35;100.00
41596;BME280;27283;52.504;13.358;2023-03-23T06:13:40;100112.31;;;10.29;100.00
41596;BME280;27283;52.504;13.358;2023-03-23T06:16:12;100111.31;;;10.30;100.00
41596;BME280;27283;52.504;13.358;2023-03-23T06:18:45;100112.34;;;9.98;100.00
41596;BME280;27283;52.504;13.358;2023-03-23T06:21:18;100112.16;;;10.07;100.00
41596;BME280;27283;52.504;13.358;2023-03-23T06:23:50;100114.13;;;10.14;100.00
41596;BME280;27283;52.504;13.358;2023-03-23T06:26:25;100116.72;;;10.22;100.00
41596;BME280;27283;52.504;13.358;2023-03-23T06:29:03;100115.38;;;10.26;100.00
41596;BME280;27283;52.504;13.358;2023-03-23T06:31:45;100118.88;;;10.35;100.00
41596;BME280;27283;52.504;13.358;2023-03-23T06:34:18;100117.00;;;10.35;100.00
41596;BME280;27283;52.504;13.358;2023-03-23T06:36:50;100113.66;;;10.33;100.00
41596;BME280;27283;52.504;13.358;2023-03-23T06:39:23;100123.56;;;10.33;100.00
41596;BME280;27283;52.504;13.358;2023-03-23T06:41:56;100129.53;;;10.43;100.00
41596;BME280;27283;52.504;13.358;2023-03-23T06:44:31;100124.16;;;10.43;100.00
41596;BME280;27283;52.504;13.358;2023-03-23T06:47:03;100127.69;;;10.43;100.00
41596;BME280;27283;52.504;13.358;2023-03-23T06:49:36;100125.41;;;10.32;100.00
41596;BME280;27283;52.504;13.358;2023-03-23T06:52:08;100127.88;;;10.42;100.00
41596;BME280;27283;52.504;13.358;2023-03-23T06:54:40;100129.31;;;10.53;100.00
41596;BME280;27283;52.504;13.358;2023-03-23T06:57:12;100125.59;;;10.54;100.00
41596;BME280;27283;52.504;13.358;2023-03-23T06:59:57;100138.97;;;10.62;100.00
41596;BME280;27283;52.504;13.358;2023-03-23T07:02:40;100141.94;;;10.67;100.00
41596;BME280;27283;52.504;13.358;2023-03-23T07:05:13;100140.56;;;10.71;100.00
41596;BME280;27283;52.504;13.358;2023-03-23T07:07:45;100142.88;;;10.74;100.00
41596;BME280;27283;52.504;13.358;2023-03-23T07:10:18;100129.41;;;10.59;100.00
41596;BME280;27283;52.504;13.358;2023-03-23T07:12:49;100132.47;;;10.56;100.00
41596;BME280;27283;52.504;13.358;2023-03-23T07:15:25;100126.53;;;10.61;100.00
41596;BME280;27283;52.504;13.358;2023-03-23T07:17:57;100114.59;;;10.63;100.00
41596;BME280;27283;52.504;13.358;2023-03-23T07:20:29;100106.97;;;10.67;100.00
41596;BME280;27283;52.504;13.358;2023-03-23T07:23:02;100100.34;;;10.78;100.00
41596;BME280;27283;52.504;13.358;2023-03-23T07:25:35;100115.34;;;10.72;100.00
41596;BME280;27283;52.504;13.358;2023-03-23T07:28:08;100120.91;;;10.71;100.00
41596;BME280;27283;52.504;13.358;2023-03-23T07:30:43;100118.78;;;10.66;100.00
41596;BME280;27283;52.504;13.358;2023-03-23T07:33:16;100112.13;;;10.77;100.00
41596;BME280;27283;52.504;13.358;2023-03-23T07:35:48;100108.50;;;10.85;100.00
41596;BME280;27283;52.504;13.358;2023-03-23T07:38:20;100117.94;;;10.80;100.00
41596;BME280;27283;52.504;13.358;2023-03-23T07:40:54;100116.41;;;10.86;100.00
41596;BME280;27283;52.504;13.358;2023-03-23T07:43:26;100124.84;;;10.83;100.00
41596;BME280;27283;52.504;13.358;2023-03-23T07:46:02;100116.84;;;10.90;100.00
41596;BME280;27283;52.504;13.358;2023-03-23T07:49:22;100080.69;;;10.77;100.00
41596;BME280;27283;52.504;13.358;2023-03-23T07:52:03;100073.38;;;11.01;100.00
41596;BME280;27283;52.504;13.358;2023-03-23T07:54:36;100074.50;;;10.92;100.00
41596;BME280;27283;52.504;13.358;2023-03-23T07:57:08;100048.31;;;11.15;100.00
41596;BME280;27283;52.504;13.358;2023-03-23T07:59:41;100064.75;;;11.21;100.00
41596;BME280;27283;52.504;13.358;2023-03-23T08:02:17;100075.19;;;11.30;100.00
41596;BME280;27283;52.504;13.358;2023-03-23T08:04:57;100092.59;;;11.28;100.00
41596;BME280;27283;52.504;13.358;2023-03-23T08:07:30;100110.00;;;11.32;100.00
41596;BME280;27283;52.504;13.358;2023-03-23T08:10:02;100116.31;;;11.39;100.00
41596;BME280;27283;52.504;13.358;2023-03-23T08:12:35;100112.69;;;11.47;100.00
41596;BME280;27283;52.504;13.358;2023-03-23T08:15:10;100116.31;;;11.39;100.00
41596;BME280;27283;52.504;13.358;2023-03-23T08:17:46;100123.94;;;11.50;100.00
41596;BME280;27283;52.504;13.358;2023-03-23T08:20:19;100120.94;;;11.60;100.00
41596;BME280;27283;52.504;13.358;2023-03-23T08:22:55;100118.16;;;11.68;100.00
41596;BME280;27283;52.504;13.358;2023-03-23T08:25:28;100119.94;;;11.61;100.00
41596;BME280;27283;52.504;13.358;2023-03-23T08:28:02;100122.63;;;11.61;99.70
41596;BME280;27283;52.504;13.358;2023-03-23T08:30:35;100128.16;;;11.75;99.96
41596;BME280;27283;52.504;13.358;2023-03-23T08:33:11;100133.38;;;11.76;100.00
41596;BME280;27283;52.504;13.358;2023-03-23T08:35:45;100129.38;;;11.57;100.00
41596;BME280;27283;52.504;13.358;2023-03-23T08:38:26;100111.47;;;11.64;100.00
41596;BME280;27283;52.504;13.358;2023-03-23T08:40:59;100102.28;;;11.59;97.66
41596;BME280;27283;52.504;13.358;2023-03-23T08:43:33;100096.63;;;11.68;97.70
41596;BME280;27283;52.504;13.358;2023-03-23T08:46:08;100123.97;;;11.87;98.80
41596;BME280;27283;52.504;13.358;2023-03-23T08:48:44;100140.75;;;11.89;97.93
41596;BME280;27283;52.504;13.358;2023-03-23T08:51:16;100142.34;;;11.83;98.85
41596;BME280;27283;52.504;13.358;2023-03-23T08:53:49;100131.19;;;12.01;98.20
41596;BME280;27283;52.504;13.358;2023-03-23T08:56:22;100129.84;;;12.12;96.61
41596;BME280;27283;52.504;13.358;2023-03-23T08:58:55;100131.91;;;12.10;95.51
41596;BME280;27283;52.504;13.358;2023-03-23T09:01:28;100128.91;;;12.20;95.17
41596;BME280;27283;52.504;13.358;2023-03-23T09:04:04;100118.81;;;12.29;94.81
41596;BME280;27283;52.504;13.358;2023-03-23T09:06:37;100139.81;;;12.55;94.96
41596;BME280;27283;52.504;13.358;2023-03-23T09:09:10;100146.50;;;12.87;93.07
41596;BME280;27283;52.504;13.358;2023-03-23T09:11:43;100152.59;;;12.96;93.34
41596;BME280;27283;52.504;13.358;2023-03-23T09:14:16;100152.69;;;12.81;89.89
41596;BME280;27283;52.504;13.358;2023-03-23T09:16:48;100167.84;;;12.82;89.45
41596;BME280;27283;52.504;13.358;2023-03-23T09:19:24;100144.81;;;12.58;89.91
41596;BME280;27283;52.504;13.358;2023-03-23T09:21:56;100140.25;;;12.58;92.56
41596;BME280;27283;52.504;13.358;2023-03-23T09:24:30;100132.69;;;12.75;91.88
41596;BME280;27283;52.504;13.358;2023-03-23T09:27:02;100137.91;;;12.77;90.78
41596;BME280;27283;52.504;13.358;2023-03-23T09:29:36;100137.88;;;12.99;91.50
41596;BME280;27283;52.504;13.358;2023-03-23T09:32:08;100130.13;;;13.24;90.05
41596;BME280;27283;52.504;13.358;2023-03-23T09:34:45;100136.38;;;13.53;90.10
41596;BME280;27283;52.504;13.358;2023-03-23T09:37:18;100125.53;;;14.08;90.18
41596;BME280;27283;52.504;13.358;2023-03-23T09:39:51;100135.78;;;14.39;86.20
41596;BME280;27283;52.504;13.358;2023-03-23T09:42:44;100142.72;;;14.82;83.84
41596;BME280;27283;52.504;13.358;2023-03-23T09:45:25;100146.44;;;15.14;78.21
41596;BME280;27283;52.504;13.358;2023-03-23T09:48:16;100146.56;;;15.39;77.50
41596;BME280;27283;52.504;13.358;2023-03-23T09:50:58;100148.66;;;15.51;76.67
41596;BME280;27283;52.504;13.358;2023-03-23T09:53:37;100153.88;;;15.32;78.01
41596;BME280;27283;52.504;13.358;2023-03-23T09:56:13;100150.00;;;14.95;78.05
41596;BME280;27283;52.504;13.358;2023-03-23T09:58:50;100147.44;;;15.20;80.61
41596;BME280;27283;52.504;13.358;2023-03-23T10:01:26;100150.38;;;15.18;78.14
41596;BME280;27283;52.504;13.358;2023-03-23T10:04:05;100145.75;;;15.32;76.81
41596;BME280;27283;52.504;13.358;2023-03-23T10:06:46;100149.31;;;15.26;72.74
41596;BME280;27283;52.504;13.358;2023-03-23T10:09:20;100158.50;;;15.05;77.74
41596;BME280;27283;52.504;13.358;2023-03-23T10:15:10;100155.63;;;14.80;79.75
41596;BME280;27283;52.504;13.358;2023-03-23T10:17:52;100155.63;;;14.73;78.17
41596;BME280;27283;52.504;13.358;2023-03-23T10:20:47;100147.50;;;14.73;78.24
41596;BME280;27283;52.504;13.358;2023-03-23T10:23:46;100141.88;;;14.81;76.23
41596;BME280;27283;52.504;13.358;2023-03-23T10:26:37;100132.94;;;14.87;77.67
41596;BME280;27283;52.504;13.358;2023-03-23T10:29:19;100133.53;;;14.89;76.05
41596;BME280;27283;52.504;13.358;2023-03-23T10:31:58;100132.50;;;14.97;76.13
41596;BME280;27283;52.504;13.358;2023-03-23T10:34:47;100127.44;;;15.28;74.16
41596;BME280;27283;52.504;13.358;2023-03-23T10:37:32;100125.97;;;15.38;72.96
41596;BME280;27283;52.504;13.358;2023-03-23T10:40:20;100126.00;;;15.25;74.17
41596;BME280;27283;52.504;13.358;2023-03-23T10:43:03;100129.91;;;15.42;72.04
41596;BME280;27283;52.504;13.358;2023-03-23T10:45:44;100123.25;;;15.38;72.91
41596;BME280;27283;52.504;13.358;2023-03-23T10:48:38;100119.75;;;15.18;71.58
41596;BME280;27283;52.504;13.358;2023-03-23T10:51:23;100126.59;;;15.34;71.50
41596;BME280;27283;52.504;13.358;2023-03-23T10:54:05;100123.69;;;15.29;70.82
41596;BME280;27283;52.504;13.358;2023-03-23T10:56:47;100127.41;;;15.41;71.20
41596;BME280;27283;52.504;13.358;2023-03-23T10:59:33;100129.50;;;15.39;70.72
41596;BME280;27283;52.504;13.358;2023-03-23T11:02:15;100131.22;;;15.27;69.92
41596;BME280;27283;52.504;13.358;2023-03-23T11:05:04;100123.09;;;15.20;71.54
41596;BME280;27283;52.504;13.358;2023-03-23T11:07:54;100130.41;;;15.13;71.08
41596;BME280;27283;52.504;13.358;2023-03-23T11:10:40;100133.09;;;15.19;70.20
41596;BME280;27283;52.504;13.358;2023-03-23T11:13:20;100132.50;;;15.04;70.24
41596;BME280;27283;52.504;13.358;2023-03-23T11:15:58;100143.09;;;14.99;69.35
41596;BME280;27283;52.504;13.358;2023-03-23T11:18:42;100146.25;;;14.89;70.99
41596;BME280;27283;52.504;13.358;2023-03-23T11:21:28;100136.84;;;15.12;71.23
41596;BME280;27283;52.504;13.358;2023-03-23T11:24:00;100151.00;;;15.14;70.00
41596;BME280;27283;52.504;13.358;2023-03-23T11:26:46;100142.47;;;15.17;69.77
41596;BME280;27283;52.504;13.358;2023-03-23T11:29:32;100147.00;;;15.36;70.60
41596;BME280;27283;52.504;13.358;2023-03-23T11:32:10;100152.25;;;15.31;69.79
41596;BME280;27283;52.504;13.358;2023-03-23T11:34:45;100147.38;;;15.53;69.31
41596;BME280;27283;52.504;13.358;2023-03-23T11:37:23;100151.72;;;15.68;69.38
41596;BME280;27283;52.504;13.358;2023-03-23T11:40:00;100158.38;;;15.65;68.58
41596;BME280;27283;52.504;13.358;2023-03-23T11:42:43;100157.13;;;15.81;66.12
41596;BME280;27283;52.504;13.358;2023-03-23T11:45:21;100156.47;;;15.79;64.89
41596;BME280;27283;52.504;13.358;2023-03-23T11:48:02;100159.78;;;15.94;68.13
41596;BME280;27283;52.504;13.358;2023-03-23T11:50:45;100142.94;;;15.79;67.17
41596;BME280;27283;52.504;13.358;2023-03-23T11:53:34;100149.41;;;16.17;67.06
41596;BME280;27283;52.504;13.358;2023-03-23T11:56:22;100160.91;;;16.19;64.60
41596;BME280;27283;52.504;13.358;2023-03-23T11:58:57;100158.72;;;16.34;65.44
41596;BME280;27283;52.504;13.358;2023-03-23T12:01:48;100152.31;;;16.22;68.18
41596;BME280;27283;52.504;13.358;2023-03-23T12:04:35;100158.41;;;16.17;64.90
41596;BME280;27283;52.504;13.358;2023-03-23T12:07:36;100157.97;;;16.20;65.12
41596;BME280;27283;52.504;13.358;2023-03-23T12:10:18;100166.38;;;16.05;63.58
41596;BME280;27283;52.504;13.358;2023-03-23T12:13:29;100168.19;;;16.18;64.51
41596;BME280;27283;52.504;13.358;2023-03-23T12:16:14;100159.19;;;15.86;65.89
41596;BME280;27283;52.504;13.358;2023-03-23T12:19:00;100157.59;;;15.51;65.04
41596;BME280;27283;52.504;13.358;2023-03-23T12:21:41;100159.41;;;15.71;63.68
41596;BME280;27283;52.504;13.358;2023-03-23T12:24:31;100155.47;;;15.67;65.57
41596;BME280;27283;52.504;13.358;2023-03-23T12:27:15;100155.22;;;15.75;63.03
41596;BME280;27283;52.504;13.358;2023-03-23T12:29:59;100155.22;;;15.88;63.55
41596;BME280;27283;52.504;13.358;2023-03-23T12:32:49;100147.09;;;15.88;62.60
41596;BME280;27283;52.504;13.358;2023-03-23T12:35:46;100146.50;;;15.66;64.32
41596;BME280;27283;52.504;13.358;2023-03-23T12:38:45;100142.91;;;15.86;63.73
41596;BME280;27283;52.504;13.358;2023-03-23T12:41:26;100131.19;;;15.92;66.97
41596;BME280;27283;52.504;13.358;2023-03-23T12:44:05;100125.28;;;16.08;61.63
41596;BME280;27283;52.504;13.358;2023-03-23T12:46:51;100134.72;;;15.92;63.68
41596;BME280;27283;52.504;13.358;2023-03-23T12:49:31;100129.47;;;16.04;61.37
41596;BME280;27283;52.504;13.358;2023-03-23T12:52:16;100125.44;;;16.13;61.26
41596;BME280;27283;52.504;13.358;2023-03-23T12:54:54;100094.56;;;16.15;61.96
41596;BME280;27283;52.504;13.358;2023-03-23T12:57:35;100112.38;;;16.36;60.52
41596;BME280;27283;52.504;13.358;2023-03-23T13:00:14;100124.19;;;16.48;60.53
41596;BME280;27283;52.504;13.358;2023-03-23T13:02:57;100128.91;;;16.59;59.61
41596;BME280;27283;52.504;13.358;2023-03-23T13:05:38;100140.25;;;16.75;61.20
41596;BME280;27283;52.504;13.358;2023-03-23T13:08:20;100129.56;;;17.05;58.34
41596;BME280;27283;52.504;13.358;2023-03-23T13:10:57;100139.31;;;17.31;57.77
41596;BME280;27283;52.504;13.358;2023-03-23T13:13:48;100126.81;;;17.30;56.64
41596;BME280;27283;52.504;13.358;2023-03-23T13:16:29;100127.50;;;17.26;57.70
41596;BME280;27283;52.504;13.358;2023-03-23T13:19:13;100128.75;;;17.23;56.32
41596;BME280;27283;52.504;13.358;2023-03-23T13:21:52;100114.13;;;16.80;57.17
41596;BME280;27283;52.504;13.358;2023-03-23T13:24:52;100129.31;;;16.88;57.36
41596;BME280;27283;52.504;13.358;2023-03-23T13:27:26;100125.94;;;16.93;57.32
41596;BME280;27283;52.504;13.358;2023-03-23T13:29:59;100125.81;;;17.06;58.87
41596;BME280;27283;52.504;13.358;2023-03-23T13:32:35;100123.09;;;17.06;57.52
41596;BME280;27283;52.504;13.358;2023-03-23T13:35:17;100115.78;;;17.07;54.68
41596;BME280;27283;52.504;13.358;2023-03-23T13:37:51;100092.13;;;16.89;55.76
41596;BME280;27283;52.504;13.358;2023-03-23T13:40:29;100088.97;;;16.92;53.82
41596;BME280;27283;52.504;13.358;2023-03-23T13:43:02;100090.72;;;16.54;56.49
41596;BME280;27283;52.504;13.358;2023-03-23T13:45:43;100076.72;;;16.57;53.92